Cavern City Air Terminal
KCNM : now visible

Airfield :











YOU CAN JOIN US ON...

 
LOGIN :

Register | Disclaimer

   EN    FR    IT 

 









Legend :    VFR   Marginal VFR   IFR   Intensive IFR   Very Intensive IFR
Visi :
Ceiling :
>= 8 km
>= 3000ft
5 to 8 km
1000 to 3000 ft
1500m to 5 km
500 to 1000 ft
800 to 1500m
200 to 500 ft
< 800m
< 200 ft
Symbols :   Thunderstorms  Fog  Heavy snow  Heavy precipitations  Wind > 20 kt







- Airport Elevation : 3295 ft
- IATA code : CNM


KCNM - Cavern City Air Terminal

CURRENT METAR :
  • 212130Z AUTO 29013KT 4SM +TSRA BR FEW021 BKN033 OVC060 19/18 A3001 RMK AO2 PK WND 30031/2057 WSHFT 2054 LTG DSNT N RAB2056 TSB01E16B30 T01890178 PNO $

EXPIRED METARs :
  • 212122Z AUTO 29019KT 2SM VCTS RA BR BKN031 BKN060 19/18 A3001 RMK AO2 PK WND 30031/2057 WSHFT 2054 LTG DSNT N RAB2056 TSB01E16 T01890178 PNO $
  • 212108Z AUTO 28019G28KT 1/4SM +TSRA FG BKN014 BKN030 OVC055 19/18 A2999 RMK AO2 PK WND 30031/2057 WSHFT 2054 RAB2056 TSB01 T01890178 PNO $
  • 212100Z AUTO 29023G31KT 3/4SM +RA BR SCT017 BKN042 OVC080 20/18 A3001 RMK AO2 PK WND 30031/2057 RAB2056 P0000 T02000178 $
  • 211953Z AUTO 03006KT 10SM FEW034 SCT090 26/17 A2999 RMK AO2 RAB01E34 SLP102 P0000 T02560172 $
  • 211853Z AUTO 35009KT 300V010 10SM FEW033 SCT049 SCT055 27/18 A3001 RMK AO2 SLP104 T02670178 $

TAF KCNM
Valid from the 21 at 21:00 until the 22 at 18:00 UTC


212117Z 2121/2218 17011KT P6SM SCT040 BKN100
TEMPO 2121/2122 VRB20G30KT 1/2SM +TSRA OVC010CB
FM212200 16009KT P6SM BKN050
TEMPO 2122/2202 VRB20G30KT 4SM -TSRA BKN035CB
FM220500 19007KT P6SM BKN120
No reported NOTAMs for that airfield.



MET'MAP, your aeronautical weather chart ! - Copyright ORBIFLY December 2007 - Disclaimer

ORBIFLY MET'MAP TEAM :

Programming & Development : Alexandra Zaïnal
Concept & Development : Baudouin d'Aumeries
Co-Development & Prog : Marc-Olivier Méhu
Technical & hardware support : Manuel Goepfert

Contact : metmap@orbifly.com




SOURCES & CREDITS :

   NOAA       Earth
Advisory